Time;durP1;ratioP1;P1;durP2;ratioP2;P2;SDS_P1;SDS_P2;PMS_P1;PMS_P2;Temp;Humidity;BMP_temperature;BMP_pressure;BME280_temperature;BME280_humidity;BME280_pressure;Samples;Min_cycle;Max_cycle;Signal;HPM_P1;HPM_P2
2023/04/30 00:00:08;;;;;;;;;;;;;;;8.42;70.20;102301.66;5059932;28;19916;-67
2023/04/30 00:02:33;;;;;;;;;;;;;;;8.38;69.98;102303.69;5057619;28;19920;-67
2023/04/30 00:04:58;;;;;;;;;;;;;;;8.30;70.45;102300.75;5054520;28;19927;-67
2023/04/30 00:07:23;;;;;;;;;;;;;;;8.24;70.49;102295.09;5057464;28;19912;-67
2023/04/30 00:09:50;;;;;;;;;;;;;;;8.21;70.49;102290.06;5064500;28;20500;-67
2023/04/30 00:12:15;;;;;;;;;;;;;;;8.19;70.96;102286.69;5054530;28;20322;-67
2023/04/30 00:14:40;;;;;;;;;;;;;;;8.13;71.48;102293.31;5052855;28;20460;-67
2023/04/30 00:17:05;;;;;;;;;;;;;;;8.03;71.95;102293.16;5058031;28;19931;-66
2023/04/30 00:19:30;;;;;;;;;;;;;;;7.98;71.96;102294.47;5057800;28;19920;-66
2023/04/30 00:21:56;;;;;;;;;;;;;;;7.99;72.06;102298.81;5058609;28;20396;-67
2023/04/30 00:24:21;;;;;;;;;;;;;;;8.00;72.05;102293.41;5055575;28;19920;-67
2023/04/30 00:26:46;;;;;;;;;;;;;;;8.03;72.38;102298.44;5064544;28;19924;-67
2023/04/30 00:29:11;;;;;;;;;;;;;;;8.02;72.70;102294.13;5060223;28;19921;-66
2023/04/30 00:31:37;;;;;;;;;;;;;;;8.02;72.79;102293.28;5068779;28;19912;-67
2023/04/30 00:34:02;;;;;;;;;;;;;;;8.01;72.63;102299.53;5066335;28;20007;-66
2023/04/30 00:36:27;;;;;;;;;;;;;;;8.01;72.81;102299.53;5059176;28;19912;-67
2023/04/30 00:38:52;;;;;;;;;;;;;;;8.02;72.98;102301.22;5055459;28;20286;-66
2023/04/30 00:41:18;;;;;;;;;;;;;;;7.98;72.91;102300.63;5060130;28;20003;-66
2023/04/30 00:43:45;;;;;;;;;;;;;;;7.97;73.19;102301.56;5059012;28;19923;-67
2023/04/30 00:46:10;;;;;;;;;;;;;;;7.97;73.35;102306.03;5062983;28;19920;-66
2023/04/30 00:48:36;;;;;;;;;;;;;;;7.99;73.49;102290.88;5061298;28;19912;-67
2023/04/30 00:51:02;;;;;;;;;;;;;;;8.01;73.88;102303.03;5061824;28;20334;-67
2023/04/30 00:53:28;;;;;;;;;;;;;;;8.02;74.65;102298.56;5060164;28;20007;-67
2023/04/30 00:55:54;;;;;;;;;;;;;;;7.99;75.03;102294.34;5057092;28;20011;-67
2023/04/30 00:58:19;;;;;;;;;;;;;;;7.97;74.90;102301.56;5057188;28;20385;-67
2023/04/30 01:00:45;;;;;;;;;;;;;;;7.94;74.97;102298.31;5056974;28;19913;-66
2023/04/30 01:03:12;;;;;;;;;;;;;;;7.86;75.09;102296.28;5060988;28;19963;-66
2023/04/30 01:05:37;;;;;;;;;;;;;;;7.83;75.14;102300.97;5050805;28;19913;-67
2023/04/30 01:08:02;;;;;;;;;;;;;;;7.84;75.27;102298.19;5056070;28;20452;-67
2023/04/30 01:10:31;;;;;;;;;;;;;;;7.83;75.59;102296.50;5057766;28;19913;-67
2023/04/30 01:13:09;;;;;;;;;;;;;;;7.81;75.57;102292.31;5057045;28;19924;-67
2023/04/30 01:15:40;;;;;;;;;;;;;;;7.77;75.94;102289.03;5059229;28;19928;-66
2023/04/30 01:18:12;;;;;;;;;;;;;;;7.78;75.44;102294.19;5055250;28;19923;-67
2023/04/30 01:20:44;;;;;;;;;;;;;;;7.70;76.19;102293.94;5058369;28;19959;-67
2023/04/30 01:23:13;;;;;;;;;;;;;;;7.60;76.09;102290.31;5057023;28;20361;-67
2023/04/30 01:25:38;;;;;;;;;;;;;;;7.54;76.05;102295.22;5059882;28;19951;-65
2023/04/30 01:28:16;;;;;;;;;;;;;;;7.51;76.01;102292.78;5055849;28;19952;-67
2023/04/30 01:30:45;;;;;;;;;;;;;;;7.49;76.09;102297.34;5051783;28;19912;-66
2023/04/30 01:33:11;;;;;;;;;;;;;;;7.45;76.20;102305.50;5062804;28;19912;-67
2023/04/30 01:35:51;;;;;;;;;;;;;;;7.43;76.12;102294.22;5060549;28;19925;-67
2023/04/30 01:38:34;;;;;;;;;;;;;;;7.37;76.16;102305.25;5055863;28;20389;-67
2023/04/30 01:41:00;;;;;;;;;;;;;;;7.31;76.19;102307.50;5060414;28;20283;-66
2023/04/30 01:43:25;;;;;;;;;;;;;;;7.24;76.13;102303.63;5056185;28;19998;-67
2023/04/30 01:45:50;;;;;;;;;;;;;;;7.21;76.78;102302.03;5053895;28;19919;-66
2023/04/30 01:48:21;;;;;;;;;;;;;;;7.21;77.04;102304.69;5050768;28;19913;-67
2023/04/30 01:50:48;;;;;;;;;;;;;;;7.24;77.62;102298.34;5056407;28;19912;-67
2023/04/30 01:53:17;;;;;;;;;;;;;;;7.24;78.09;102304.47;5062800;28;19942;-66
2023/04/30 01:55:47;;;;;;;;;;;;;;;7.24;78.43;102303.63;5054382;28;19920;-67
2023/04/30 01:58:13;;;;;;;;;;;;;;;7.26;78.44;102304.38;5057084;28;19917;-67
2023/04/30 02:00:39;;;;;;;;;;;;;;;7.25;78.74;102300.03;5058655;28;19913;-66
2023/04/30 02:03:05;;;;;;;;;;;;;;;7.23;79.03;102296.63;5055344;28;19924;-66
2023/04/30 02:05:30;;;;;;;;;;;;;;;7.21;79.28;102296.75;5059796;28;19925;-66
2023/04/30 02:07:55;;;;;;;;;;;;;;;7.17;79.24;102299.72;5055901;28;19925;-67
2023/04/30 02:10:21;;;;;;;;;;;;;;;7.09;78.84;102300.31;5056401;28;19913;-66
2023/04/30 02:12:46;;;;;;;;;;;;;;;7.06;78.90;102305.81;5051572;28;19938;-66
2023/04/30 02:15:12;;;;;;;;;;;;;;;7.07;78.69;102300.41;5054998;28;20382;-67
2023/04/30 02:17:37;;;;;;;;;;;;;;;7.09;78.62;102300.31;5050600;28;19925;-67
2023/04/30 02:20:03;;;;;;;;;;;;;;;7.07;78.57;102297.78;5055863;28;19917;-67
2023/04/30 02:22:28;;;;;;;;;;;;;;;7.03;78.71;102290.19;5059623;28;19916;-66
2023/04/30 02:24:54;;;;;;;;;;;;;;;6.99;78.28;102297.50;5052239;28;19955;-67
2023/04/30 02:27:20;;;;;;;;;;;;;;;7.02;78.26;102301.72;5055937;28;19920;-67
2023/04/30 02:29:45;;;;;;;;;;;;;;;7.05;78.47;102298.84;5064740;28;19917;-67
2023/04/30 02:32:11;;;;;;;;;;;;;;;7.08;78.64;102296.81;5064261;28;20593;-67
2023/04/30 02:34:36;;;;;;;;;;;;;;;7.09;78.79;102295.03;5074936;28;19928;-67
2023/04/30 02:37:02;;;;;;;;;;;;;;;7.10;78.60;102299.34;5064341;28;20336;-67
2023/04/30 02:39:27;;;;;;;;;;;;;;;7.10;78.75;102297.53;5061213;28;19999;-66
2023/04/30 02:41:52;;;;;;;;;;;;;;;7.08;78.71;102295.97;5067451;28;19923;-66
2023/04/30 02:44:17;;;;;;;;;;;;;;;7.04;78.75;102295.34;5065901;28;19913;-67
2023/04/30 02:46:42;;;;;;;;;;;;;;;7.01;78.46;102300.88;5056270;28;20016;-67
2023/04/30 02:49:07;;;;;;;;;;;;;;;7.00;78.39;102303.63;5066820;28;19920;-67
2023/04/30 02:51:33;;;;;;;;;;;;;;;6.97;78.84;102302.06;5061193;28;19994;-66
2023/04/30 02:53:58;;;;;;;;;;;;;;;6.91;78.91;102301.63;5069199;28;20003;-66
2023/04/30 02:56:23;;;;;;;;;;;;;;;6.86;78.62;102296.69;5063330;28;20300;-67
2023/04/30 02:58:48;;;;;;;;;;;;;;;6.86;79.16;102296.69;5055008;28;21295;-66
2023/04/30 03:01:14;;;;;;;;;;;;;;;6.85;79.02;102300.28;5056025;28;19912;-67
2023/04/30 03:03:39;;;;;;;;;;;;;;;6.84;79.06;102298.59;5061987;28;19940;-66
2023/04/30 03:06:04;;;;;;;;;;;;;;;6.84;79.11;102295.94;5063865;28;19965;-67
2023/04/30 03:08:30;;;;;;;;;;;;;;;6.82;79.19;102296.06;5062460;28;19917;-67
2023/04/30 03:10:55;;;;;;;;;;;;;;;6.80;79.17;102295.34;5063870;28;19939;-66
2023/04/30 03:13:20;;;;;;;;;;;;;;;6.77;79.56;102292.91;5070884;28;19979;-66
2023/04/30 03:15:45;;;;;;;;;;;;;;;6.74;79.43;102294.94;5065096;28;19916;-66
2023/04/30 03:18:10;;;;;;;;;;;;;;;6.70;79.46;102306.69;5062139;28;20301;-66
2023/04/30 03:20:36;;;;;;;;;;;;;;;6.67;79.53;102298.97;5059719;28;20393;-66
2023/04/30 03:23:01;;;;;;;;;;;;;;;6.64;80.03;102299.16;5063003;28;19916;-66
2023/04/30 03:25:26;;;;;;;;;;;;;;;6.55;80.35;102292.75;5068697;28;19947;-66
2023/04/30 03:27:51;;;;;;;;;;;;;;;6.52;80.16;102300.88;5060131;28;20410;-66
2023/04/30 03:30:17;;;;;;;;;;;;;;;6.52;80.16;102301.75;5062603;28;20001;-67
2023/04/30 03:32:42;;;;;;;;;;;;;;;6.53;80.40;102299.94;5060616;28;19920;-66
2023/04/30 03:35:07;;;;;;;;;;;;;;;6.56;80.26;102299.72;5069567;28;19923;-66
2023/04/30 03:37:32;;;;;;;;;;;;;;;6.57;80.17;102301.41;5058616;28;19917;-66
2023/04/30 03:39:58;;;;;;;;;;;;;;;6.56;80.17;102304.16;5056663;28;20301;-66
2023/04/30 03:42:23;;;;;;;;;;;;;;;6.55;80.39;102297.19;5067616;28;19944;-67
2023/04/30 03:44:48;;;;;;;;;;;;;;;6.56;80.34;102296.25;5061742;28;19921;-66
2023/04/30 03:47:13;;;;;;;;;;;;;;;6.54;80.92;102304.25;5054764;28;19952;-66
2023/04/30 03:49:39;;;;;;;;;;;;;;;6.49;80.68;102301.94;5053099;28;19924;-67
2023/04/30 03:52:05;;;;;;;;;;;;;;;6.44;80.83;102292.69;5057012;28;19962;-66
2023/04/30 03:54:30;;;;;;;;;;;;;;;6.41;80.91;102299.03;5053152;28;19920;-65
2023/04/30 03:56:56;;;;;;;;;;;;;;;6.39;80.83;102303.56;5057780;28;19932;-66
2023/04/30 03:59:21;;;;;;;;;;;;;;;6.36;81.26;102298.50;5051952;28;20011;-66
2023/04/30 04:01:46;;;;;;;;;;;;;;;6.32;81.31;102297.00;5058371;28;20011;-66
2023/04/30 04:04:12;;;;;;;;;;;;;;;6.30;81.51;102300.69;5056888;28;19944;-67
2023/04/30 04:06:37;;;;;;;;;;;;;;;6.26;81.51;102300.06;5061463;28;19963;-67
2023/04/30 04:09:03;;;;;;;;;;;;;;;6.24;81.45;102303.78;5070206;28;19920;-66
2023/04/30 04:11:28;;;;;;;;;;;;;;;6.24;81.36;102299.34;5056190;28;19933;-66
2023/04/30 04:13:54;;;;;;;;;;;;;;;6.26;81.88;102300.06;5053072;28;19924;-66
2023/04/30 04:16:19;;;;;;;;;;;;;;;6.28;82.40;102290.25;5051158;28;19917;-66
2023/04/30 04:18:45;;;;;;;;;;;;;;;6.32;82.57;102310.19;5061183;28;19913;-66
2023/04/30 04:21:10;;;;;;;;;;;;;;;6.36;82.63;102309.06;5063291;28;20283;-66
2023/04/30 04:23:36;;;;;;;;;;;;;;;6.39;82.63;102302.72;5058829;28;19920;-67
2023/04/30 04:26:01;;;;;;;;;;;;;;;6.41;82.53;102303.44;5051121;28;19917;-66
2023/04/30 04:28:27;;;;;;;;;;;;;;;6.42;82.67;102308.63;5054167;28;20223;-66
2023/04/30 04:30:52;;;;;;;;;;;;;;;6.42;82.66;102307.78;5051981;28;19913;-66
2023/04/30 04:33:17;;;;;;;;;;;;;;;6.36;82.80;102309.06;5053647;28;20568;-66
2023/04/30 04:35:42;;;;;;;;;;;;;;;6.31;83.33;102313.78;5075161;28;19999;-65
2023/04/30 04:38:08;;;;;;;;;;;;;;;6.27;83.25;102311.47;5060108;28;19929;-66
2023/04/30 04:40:34;;;;;;;;;;;;;;;6.26;83.20;102315.06;5062788;28;19962;-66
2023/04/30 04:42:59;;;;;;;;;;;;;;;6.27;83.05;102307.03;5054411;28;19923;-66
2023/04/30 04:45:24;;;;;;;;;;;;;;;6.32;82.61;102307.56;5066678;28;19916;-66
2023/04/30 04:47:50;;;;;;;;;;;;;;;6.39;83.65;102310.63;5067053;28;19955;-66
2023/04/30 04:50:16;;;;;;;;;;;;;;;6.43;83.59;102306.81;5055586;28;19913;-66
2023/04/30 04:52:41;;;;;;;;;;;;;;;6.50;83.81;102316.00;5057658;28;20369;-66
2023/04/30 04:55:06;;;;;;;;;;;;;;;6.56;83.82;102318.19;5066274;28;19921;-66
2023/04/30 04:57:32;;;;;;;;;;;;;;;6.63;84.03;102324.72;5062903;28;19920;-66
2023/04/30 04:59:57;;;;;;;;;;;;;;;6.68;83.99;102319.13;5063762;28;19970;-65
2023/04/30 05:02:22;;;;;;;;;;;;;;;6.67;84.41;102315.66;5062643;28;19924;-66
2023/04/30 05:04:49;;;;;;;;;;;;;;;6.73;84.92;102320.50;5065630;28;20411;-66
2023/04/30 05:07:14;;;;;;;;;;;;;;;6.81;85.16;102319.94;5065969;28;19964;-65
2023/04/30 05:09:39;;;;;;;;;;;;;;;6.89;85.16;102329.94;5058720;28;19952;-66
2023/04/30 05:12:05;;;;;;;;;;;;;;;6.96;85.77;102332.06;5060103;28;19916;-66
2023/04/30 05:14:30;;;;;;;;;;;;;;;7.05;86.18;102326.09;5060281;28;19923;-66
2023/04/30 05:16:55;;;;;;;;;;;;;;;7.15;86.76;102329.75;5055430;28;20082;-65
2023/04/30 05:19:21;;;;;;;;;;;;;;;7.25;86.71;102326.47;5067529;28;20289;-66
2023/04/30 05:21:46;;;;;;;;;;;;;;;7.35;87.65;102324.81;5065131;28;19916;-66
2023/04/30 05:24:11;;;;;;;;;;;;;;;7.43;87.06;102331.22;5061099;28;19913;-66
2023/04/30 05:26:36;;;;;;;;;;;;;;;7.50;87.61;102323.66;5056645;28;19978;-66
2023/04/30 05:29:01;;;;;;;;;;;;;;;7.57;87.56;102322.28;5060643;28;19917;-67
2023/04/30 05:31:27;;;;;;;;;;;;;;;7.64;87.30;102320.84;5056986;28;19920;-67
2023/04/30 05:33:52;;;;;;;;;;;;;;;7.72;88.14;102315.81;5060340;28;19927;-67
2023/04/30 05:36:17;;;;;;;;;;;;;;;7.82;88.18;102318.63;5062411;28;19923;-67
2023/04/30 05:38:42;;;;;;;;;;;;;;;7.92;88.06;102321.41;5061402;28;20348;-67
2023/04/30 05:41:09;;;;;;;;;;;;;;;8.02;88.80;102317.09;5058643;28;20445;-67
2023/04/30 05:43:34;;;;;;;;;;;;;;;8.15;88.91;102322.28;5059632;28;19963;-66
2023/04/30 05:46:00;;;;;;;;;;;;;;;8.22;88.67;102318.22;5059474;28;20006;-66
2023/04/30 05:48:26;;;;;;;;;;;;;;;8.32;89.10;102327.94;5061673;28;20853;-67
2023/04/30 05:50:51;;;;;;;;;;;;;;;8.43;88.67;102332.47;5053269;28;19916;-67
2023/04/30 05:53:16;;;;;;;;;;;;;;;8.54;88.94;102318.38;5061005;28;19934;-66
2023/04/30 05:55:41;;;;;;;;;;;;;;;8.59;88.65;102324.97;5058883;28;19917;-67
2023/04/30 05:58:06;;;;;;;;;;;;;;;8.64;88.45;102324.59;5057478;28;20011;-67
2023/04/30 06:00:32;;;;;;;;;;;;;;;8.69;88.35;102319.81;5060309;28;19920;-67
2023/04/30 06:02:57;;;;;;;;;;;;;;;8.74;87.85;102316.78;5055741;28;19920;-67
2023/04/30 06:05:22;;;;;;;;;;;;;;;8.78;87.56;102318.22;5051600;28;19924;-66
2023/04/30 06:07:47;;;;;;;;;;;;;;;8.81;87.25;102316.19;5058438;28;19932;-65
2023/04/30 06:10:12;;;;;;;;;;;;;;;8.84;86.83;102315.09;5062386;28;19916;-65
2023/04/30 06:12:38;;;;;;;;;;;;;;;8.86;85.87;102314.00;5059053;28;19983;-66
2023/04/30 06:15:04;;;;;;;;;;;;;;;8.89;85.63;102308.44;5053965;28;20046;-66
2023/04/30 06:17:29;;;;;;;;;;;;;;;8.94;85.44;102306.25;5050834;28;19927;-66
2023/04/30 06:19:54;;;;;;;;;;;;;;;9.00;85.60;102307.59;5061662;28;19974;-66
2023/04/30 06:22:19;;;;;;;;;;;;;;;9.04;85.41;102308.19;5054207;28;20416;-67
2023/04/30 06:24:45;;;;;;;;;;;;;;;9.10;85.65;102313.81;5052453;28;20051;-66
2023/04/30 06:27:10;;;;;;;;;;;;;;;9.20;85.79;102306.78;5055303;28;19951;-66
2023/04/30 06:29:35;;;;;;;;;;;;;;;9.28;85.53;102317.63;5050036;28;20295;-69
2023/04/30 06:32:00;;;;;;;;;;;;;;;9.36;85.52;102311.69;5055757;28;19913;-68
2023/04/30 06:34:25;;;;;;;;;;;;;;;9.49;85.60;102325.59;5059299;28;19985;-68
2023/04/30 06:36:51;;;;;;;;;;;;;;;9.61;85.57;102321.13;5058552;28;19917;-69
2023/04/30 06:39:16;;;;;;;;;;;;;;;9.69;85.15;102315.16;5057725;28;19912;-69
2023/04/30 06:41:41;;;;;;;;;;;;;;;9.78;84.90;102323.19;5057147;28;19920;-69
2023/04/30 06:44:09;;;;;;;;;;;;;;;9.82;83.98;102319.28;5065613;28;20370;-68
2023/04/30 06:46:35;;;;;;;;;;;;;;;9.89;83.94;102330.25;5056588;28;21046;-68
2023/04/30 06:49:00;;;;;;;;;;;;;;;10.00;84.37;102322.22;5063112;28;19916;-70
2023/04/30 06:51:25;;;;;;;;;;;;;;;10.09;83.41;102309.97;5056144;28;19920;-69
2023/04/30 06:53:51;;;;;;;;;;;;;;;10.18;83.08;102323.31;5060333;28;19916;-68
2023/04/30 06:56:16;;;;;;;;;;;;;;;10.24;82.83;102325.47;5060278;28;19923;-68
2023/04/30 06:58:41;;;;;;;;;;;;;;;10.34;82.85;102320.19;5053705;28;19912;-68
2023/04/30 07:01:06;;;;;;;;;;;;;;;10.44;82.36;102321.09;5054376;28;19932;-68
2023/04/30 07:03:33;;;;;;;;;;;;;;;10.49;81.66;102318.03;5060177;28;19924;-66
2023/04/30 07:05:58;;;;;;;;;;;;;;;10.47;81.54;102331.44;5059296;28;20321;-66
2023/04/30 07:08:23;;;;;;;;;;;;;;;10.52;81.25;102323.91;5063479;28;19917;-66
2023/04/30 07:10:48;;;;;;;;;;;;;;;10.54;81.09;102324.63;5058845;28;19920;-66
2023/04/30 07:13:13;;;;;;;;;;;;;;;10.55;81.02;102322.81;5053893;28;20343;-66
2023/04/30 07:15:39;;;;;;;;;;;;;;;10.56;80.83;102319.16;5064214;28;19936;-66
2023/04/30 07:18:04;;;;;;;;;;;;;;;10.62;80.80;102323.09;5062620;28;19916;-66
2023/04/30 07:20:29;;;;;;;;;;;;;;;10.65;80.52;102321.00;5059537;28;19916;-66
2023/04/30 07:22:54;;;;;;;;;;;;;;;10.68;80.60;102317.25;5060656;28;19916;-66
2023/04/30 07:25:20;;;;;;;;;;;;;;;10.73;80.50;102310.56;5056094;28;19931;-66
2023/04/30 07:27:45;;;;;;;;;;;;;;;10.84;80.75;102317.59;5052358;28;19912;-66
2023/04/30 07:30:10;;;;;;;;;;;;;;;10.89;80.26;102315.34;5068906;28;19916;-66
2023/04/30 07:32:36;;;;;;;;;;;;;;;10.90;80.13;102316.19;5057326;28;19920;-66
2023/04/30 07:35:01;;;;;;;;;;;;;;;10.97;80.23;102315.50;5062193;28;19959;-66
2023/04/30 07:37:26;;;;;;;;;;;;;;;11.05;79.83;102317.50;5059123;28;19956;-66
2023/04/30 07:39:51;;;;;;;;;;;;;;;11.08;79.83;102309.25;5064197;28;20374;-66
2023/04/30 07:42:17;;;;;;;;;;;;;;;11.16;80.48;102309.38;5065661;28;20602;-66
2023/04/30 07:44:42;;;;;;;;;;;;;;;11.31;81.02;102310.66;5067374;28;20266;-66
2023/04/30 07:47:08;;;;;;;;;;;;;;;11.48;81.31;102301.97;5058457;28;19962;-66
2023/04/30 07:49:33;;;;;;;;;;;;;;;11.57;80.51;102310.13;5060239;28;19913;-66
2023/04/30 07:52:00;;;;;;;;;;;;;;;11.71;80.85;102315.00;5065003;28;20467;-66
2023/04/30 07:54:25;;;;;;;;;;;;;;;11.81;80.25;102312.34;5064944;28;19928;-66
2023/04/30 07:56:50;;;;;;;;;;;;;;;11.90;79.71;102324.81;5059374;28;19917;-65
2023/04/30 07:59:16;;;;;;;;;;;;;;;11.93;79.45;102316.53;5058389;28;20386;-66
2023/04/30 08:01:41;;;;;;;;;;;;;;;11.99;78.80;102327.44;5053848;28;19913;-66
2023/04/30 08:04:06;;;;;;;;;;;;;;;12.04;78.71;102319.03;5058247;28;19913;-65
2023/04/30 08:06:32;;;;;;;;;;;;;;;12.02;77.73;102319.16;5057722;28;19963;-66
2023/04/30 08:08:57;;;;;;;;;;;;;;;12.02;77.33;102316.50;5062066;28;19924;-66
2023/04/30 08:11:22;;;;;;;;;;;;;;;12.10;77.87;102326.44;5061540;28;20019;-66
2023/04/30 08:13:47;;;;;;;;;;;;;;;12.20;77.82;102329.09;5067175;28;19920;-66
2023/04/30 08:16:14;;;;;;;;;;;;;;;12.27;77.62;102338.16;5064000;28;21361;-66
2023/04/30 08:18:43;;;;;;;;;;;;;;;12.28;76.96;102327.38;5059162;28;20394;-66
2023/04/30 08:21:09;;;;;;;;;;;;;;;12.36;76.83;102334.63;5061764;28;20015;-66
2023/04/30 08:23:34;;;;;;;;;;;;;;;12.46;76.83;102335.44;5064602;28;20011;-65
2023/04/30 08:25:59;;;;;;;;;;;;;;;12.55;76.75;102334.56;5060564;28;20125;-66
2023/04/30 08:28:24;;;;;;;;;;;;;;;12.63;76.42;102337.31;5068084;28;20356;-66
2023/04/30 08:30:49;;;;;;;;;;;;;;;12.73;75.86;102328.47;5064284;28;19932;-65
2023/04/30 08:33:15;;;;;;;;;;;;;;;12.83;75.48;102334.56;5057456;28;19970;-66
2023/04/30 08:35:40;;;;;;;;;;;;;;;12.91;75.47;102335.50;5063304;28;20602;-66
2023/04/30 08:38:05;;;;;;;;;;;;;;;12.98;75.43;102335.72;5066739;28;20478;-66
2023/04/30 08:40:34;;;;;;;;;;;;;;;13.03;75.39;102328.97;5061190;28;19912;-66
2023/04/30 08:43:03;;;;;;;;;;;;;;;13.06;75.51;102330.50;5069205;28;20007;-66
2023/04/30 08:45:30;;;;;;;;;;;;;;;13.05;74.69;102326.16;5063190;28;19991;-66
2023/04/30 08:47:58;;;;;;;;;;;;;;;13.13;74.95;102325.41;5056587;28;19917;-65
2023/04/30 08:50:23;;;;;;;;;;;;;;;13.21;74.26;102326.34;5062008;28;19927;-65
2023/04/30 08:52:48;;;;;;;;;;;;;;;13.27;73.67;102331.06;5065183;28;19913;-65
2023/04/30 08:55:13;;;;;;;;;;;;;;;13.30;73.38;102330.78;5065335;28;19963;-65
2023/04/30 08:57:39;;;;;;;;;;;;;;;13.40;73.61;102328.03;5065659;28;19927;-65
2023/04/30 09:00:05;;;;;;;;;;;;;;;13.51;73.04;102325.13;5063606;28;20437;-65
2023/04/30 09:02:31;;;;;;;;;;;;;;;13.57;72.61;102327.19;5064045;28;19940;-65
2023/04/30 09:04:57;;;;;;;;;;;;;;;13.64;72.65;102316.75;5061358;28;19919;-65
2023/04/30 09:07:24;;;;;;;;;;;;;;;13.74;72.31;102311.31;5058721;28;19917;-64
2023/04/30 09:09:52;;;;;;;;;;;;;;;13.82;72.56;102314.03;5056307;28;20492;-65
2023/04/30 09:12:18;;;;;;;;;;;;;;;13.90;72.50;102314.94;5059050;28;19928;-65
2023/04/30 09:15:00;;;;;;;;;;;;;;;14.06;72.46;102318.72;5069663;28;20054;-65
2023/04/30 09:17:25;;;;;;;;;;;;;;;14.24;70.93;102303.47;5065338;28;20382;-65
2023/04/30 09:19:51;;;;;;;;;;;;;;;14.31;70.69;102304.50;5063996;28;19935;-65
2023/04/30 09:22:20;;;;;;;;;;;;;;;14.42;71.02;102308.72;5068178;28;20500;-65
2023/04/30 09:24:47;;;;;;;;;;;;;;;14.56;70.59;102313.50;5068066;28;20409;-65
2023/04/30 09:27:16;;;;;;;;;;;;;;;14.65;70.41;102303.69;5068879;28;20317;-65
2023/04/30 09:29:41;;;;;;;;;;;;;;;14.72;70.03;102304.69;5068637;28;19948;-66
2023/04/30 09:32:07;;;;;;;;;;;;;;;14.83;69.87;102309.78;5064266;28;20061;-65
2023/04/30 09:34:33;;;;;;;;;;;;;;;15.10;69.76;102314.84;5068068;28;19962;-65
2023/04/30 09:36:58;;;;;;;;;;;;;;;15.26;69.52;102306.00;5065554;28;19970;-65
2023/04/30 09:39:23;;;;;;;;;;;;;;;15.45;69.03;102311.06;5063995;28;19917;-65
2023/04/30 09:41:52;;;;;;;;;;;;;;;15.61;68.76;102310.25;5062270;28;20034;-65
2023/04/30 09:44:26;;;;;;;;;;;;;;;15.63;68.78;102300.22;5067957;28;20003;-65
2023/04/30 09:46:51;;;;;;;;;;;;;;;15.76;68.37;102297.00;5056202;28;19960;-65
2023/04/30 09:49:17;;;;;;;;;;;;;;;16.03;66.88;102298.47;5056697;28;19955;-65
2023/04/30 09:51:59;;;;;;;;;;;;;;;16.27;66.04;102298.44;5064692;28;19916;-65
2023/04/30 09:54:26;;;;;;;;;;;;;;;16.43;64.12;102297.53;5062321;28;19939;-65
2023/04/30 09:56:52;;;;;;;;;;;;;;;16.44;64.54;102296.50;5059656;28;20022;-65
2023/04/30 09:59:20;;;;;;;;;;;;;;;16.41;63.14;102289.66;5064827;28;19920;-65
2023/04/30 10:01:45;;;;;;;;;;;;;;;16.46;62.84;102293.66;5058665;28;19966;-65
2023/04/30 10:04:10;;;;;;;;;;;;;;;16.54;62.05;102291.78;5053418;28;20344;-65
2023/04/30 10:06:36;;;;;;;;;;;;;;;16.70;62.11;102286.38;5060301;28;19927;-65
2023/04/30 10:09:02;;;;;;;;;;;;;;;16.96;62.05;102285.22;5054232;28;19917;-65
2023/04/30 10:11:28;;;;;;;;;;;;;;;17.14;61.29;102287.63;5052057;28;19920;-65
2023/04/30 10:14:01;;;;;;;;;;;;;;;17.23;60.47;102283.88;5062719;28;19917;-65
2023/04/30 10:16:39;;;;;;;;;;;;;;;17.31;59.91;102281.94;5064302;28;19913;-65
2023/04/30 10:19:10;;;;;;;;;;;;;;;17.24;58.86;102280.16;5062072;28;20333;-65
2023/04/30 10:21:39;;;;;;;;;;;;;;;17.18;58.97;102279.03;5059814;28;19928;-65
2023/04/30 10:24:04;;;;;;;;;;;;;;;17.36;59.34;102270.69;5068315;28;20022;-65
2023/04/30 10:26:30;;;;;;;;;;;;;;;17.47;59.37;102272.09;5065694;28;19923;-65
2023/04/30 10:28:57;;;;;;;;;;;;;;;17.51;58.67;102279.63;5068049;28;19961;-65
2023/04/30 10:31:22;;;;;;;;;;;;;;;17.49;59.12;102270.91;5053686;28;19960;-65
2023/04/30 10:34:06;;;;;;;;;;;;;;;17.56;58.68;102265.63;5055704;28;20007;-65
2023/04/30 10:36:37;;;;;;;;;;;;;;;17.76;58.19;102266.00;5058164;28;20302;-65
2023/04/30 10:39:03;;;;;;;;;;;;;;;17.94;58.01;102261.13;5062373;28;19912;-65
2023/04/30 10:41:29;;;;;;;;;;;;;;;18.10;57.92;102252.84;5058137;28;20011;-65
2023/04/30 10:44:00;;;;;;;;;;;;;;;18.16;57.95;102254.78;5062049;28;19913;-65
2023/04/30 10:46:26;;;;;;;;;;;;;;;18.17;57.15;102251.09;5061414;28;19917;-65
2023/04/30 10:48:54;;;;;;;;;;;;;;;18.20;56.49;102250.72;5057468;28;20004;-65
2023/04/30 10:51:20;;;;;;;;;;;;;;;18.22;56.52;102248.69;5067986;28;20007;-65
2023/04/30 10:53:48;;;;;;;;;;;;;;;18.29;56.46;102243.41;5071739;28;21884;-65
2023/04/30 10:56:13;;;;;;;;;;;;;;;18.36;56.40;102243.47;5062539;28;19923;-65
2023/04/30 10:58:38;;;;;;;;;;;;;;;18.40;55.13;102242.91;5056499;28;20011;-65
2023/04/30 11:01:14;;;;;;;;;;;;;;;18.48;55.36;102236.56;5057992;28;19936;-66
2023/04/30 11:03:41;;;;;;;;;;;;;;;18.66;55.82;102233.53;5064895;28;19919;-66
2023/04/30 11:06:13;;;;;;;;;;;;;;;18.82;54.70;102236.00;5062511;28;19927;-65
2023/04/30 11:08:41;;;;;;;;;;;;;;;18.86;54.82;102229.19;5069767;28;19917;-65
2023/04/30 11:11:07;;;;;;;;;;;;;;;18.88;54.83;102225.28;5066001;28;19916;-65
2023/04/30 11:13:40;;;;;;;;;;;;;;;18.87;53.88;102222.78;5068170;28;19924;-65
2023/04/30 11:16:06;;;;;;;;;;;;;;;18.80;52.36;102222.72;5070869;28;20523;-65
2023/04/30 11:18:31;;;;;;;;;;;;;;;18.71;52.67;102223.00;5069057;28;19912;-65
2023/04/30 11:20:57;;;;;;;;;;;;;;;18.75;51.99;102219.75;5059626;28;19916;-66
2023/04/30 11:23:23;;;;;;;;;;;;;;;18.82;52.54;102219.84;5067501;28;20381;-65
2023/04/30 11:25:48;;;;;;;;;;;;;;;18.78;51.88;102211.28;5071259;28;19913;-65
2023/04/30 11:28:22;;;;;;;;;;;;;;;18.85;53.05;102212.22;5070384;28;20404;-65
2023/04/30 11:30:50;;;;;;;;;;;;;;;18.96;52.43;102202.78;5071683;28;20493;-65
2023/04/30 11:33:15;;;;;;;;;;;;;;;19.07;52.47;102206.81;5058436;28;20003;-65
2023/04/30 11:35:41;;;;;;;;;;;;;;;19.06;51.57;102192.50;5056189;28;20501;-65
2023/04/30 11:38:07;;;;;;;;;;;;;;;18.90;51.76;102189.25;5070828;28;19969;-65
2023/04/30 11:40:34;;;;;;;;;;;;;;;18.78;51.24;102187.06;5062249;28;19913;-65
2023/04/30 11:42:59;;;;;;;;;;;;;;;18.74;51.88;102185.78;5058210;28;19918;-65
2023/04/30 11:45:26;;;;;;;;;;;;;;;18.73;52.09;102181.44;5066150;28;19916;-65
2023/04/30 11:47:52;;;;;;;;;;;;;;;18.90;53.35;102184.72;5070401;28;20397;-65
2023/04/30 11:50:21;;;;;;;;;;;;;;;18.86;51.79;102184.28;5067794;28;19923;-65
2023/04/30 11:52:50;;;;;;;;;;;;;;;18.75;51.09;102182.06;5063589;28;19919;-65
2023/04/30 11:55:16;;;;;;;;;;;;;;;18.90;51.38;102173.13;5068021;28;19939;-65
2023/04/30 11:57:42;;;;;;;;;;;;;;;19.12;50.75;102164.81;5066705;28;19916;-65
2023/04/30 12:00:12;;;;;;;;;;;;;;;19.21;49.96;102176.28;5063487;28;19935;-65
2023/04/30 12:02:38;;;;;;;;;;;;;;;19.25;50.20;102169.47;5054456;28;19925;-65
2023/04/30 12:05:04;;;;;;;;;;;;;;;19.28;50.41;102169.09;5051367;28;19912;-65
2023/04/30 12:07:29;;;;;;;;;;;;;;;19.24;49.60;102164.28;5057935;28;19966;-65
2023/04/30 12:09:54;;;;;;;;;;;;;;;19.26;49.97;102160.38;5063254;28;19912;-66
2023/04/30 12:12:29;;;;;;;;;;;;;;;19.36;49.99;102162.69;5062729;28;20410;-65
2023/04/30 12:14:55;;;;;;;;;;;;;;;19.53;50.09;102165.94;5067150;28;19920;-65
2023/04/30 12:17:33;;;;;;;;;;;;;;;19.53;48.91;102161.41;5056828;28;20309;-65
2023/04/30 12:19:58;;;;;;;;;;;;;;;19.36;50.02;102152.75;5064244;28;20065;-65
2023/04/30 12:22:23;;;;;;;;;;;;;;;19.22;49.95;102145.63;5062723;28;20011;-65
2023/04/30 12:24:48;;;;;;;;;;;;;;;19.01;50.26;102151.03;5067312;28;20054;-65
2023/04/30 12:27:13;;;;;;;;;;;;;;;19.09;50.57;102149.06;5060807;28;20007;-65
2023/04/30 12:29:43;;;;;;;;;;;;;;;19.25;50.49;102157.88;5054305;28;19913;-65
2023/04/30 12:32:08;;;;;;;;;;;;;;;19.50;49.47;102157.22;5065562;28;19923;-65
2023/04/30 12:34:36;;;;;;;;;;;;;;;19.78;49.41;102146.44;5064623;28;19920;-65
2023/04/30 12:37:02;;;;;;;;;;;;;;;19.99;49.13;102153.59;5068393;28;19917;-65